Time;durP1;ratioP1;P1;durP2;ratioP2;P2;SDS_P1;SDS_P2;PMS_P1;PMS_P2;Temp;Humidity;BMP_temperature;BMP_pressure;BME280_temperature;BME280_humidity;BME280_pressure;Samples;Min_cycle;Max_cycle;Signal;HPM_P1;HPM_P2
2021/10/07 00:00:09;;;;;;;2.80;1.50;;;;;;;10.57;100.00;101566.41;4948205;28;20215;-72
2021/10/07 00:02:43;;;;;;;2.20;1.50;;;;;;;10.52;100.00;101567.16;4941405;28;20227;-71
2021/10/07 00:05:09;;;;;;;2.77;1.63;;;;;;;10.47;100.00;101591.50;4965061;28;20180;-70
2021/10/07 00:07:35;;;;;;;2.00;1.40;;;;;;;10.37;100.00;101587.84;4937552;29;20314;-71
2021/10/07 00:10:00;;;;;;;2.20;1.30;;;;;;;10.26;100.00;101587.94;4943109;28;20273;-71
2021/10/07 00:12:33;;;;;;;1.53;1.40;;;;;;;10.24;100.00;101590.88;4948272;29;20602;-71
2021/10/07 00:14:59;;;;;;;2.77;1.70;;;;;;;10.14;100.00;101595.31;4921524;29;20187;-71
2021/10/07 00:17:27;;;;;;;2.07;1.50;;;;;;;10.16;100.00;101598.59;4954109;28;20672;-71
2021/10/07 00:19:52;;;;;;;3.97;1.60;;;;;;;10.15;100.00;101605.13;4940909;28;20182;-71
2021/10/07 00:22:20;;;;;;;2.60;1.40;;;;;;;10.06;100.00;101609.31;4956309;28;20229;-72
2021/10/07 00:24:46;;;;;;;2.40;1.60;;;;;;;10.08;100.00;101607.16;4938492;28;20249;-71
2021/10/07 00:27:14;;;;;;;2.13;1.40;;;;;;;10.06;100.00;101609.31;4920426;29;20227;-72
2021/10/07 00:29:43;;;;;;;3.30;1.57;;;;;;;10.09;100.00;101606.09;4921398;28;20239;-72
2021/10/07 00:32:20;;;;;;;1.73;1.40;;;;;;;10.06;100.00;101612.03;4955921;28;20261;-72
2021/10/07 00:40:07;;;;;;;3.37;1.37;;;;;;;9.90;100.00;101618.19;4940949;28;20194;-71
2021/10/07 00:42:32;;;;;;;1.57;1.30;;;;;;;9.69;100.00;101616.19;4967055;28;20240;-71
2021/10/07 00:45:02;;;;;;;1.60;1.20;;;;;;;9.70;100.00;101619.72;4940437;28;20191;-71
2021/10/07 00:47:35;;;;;;;3.53;1.43;;;;;;;9.71;100.00;101622.19;4954770;28;20689;-72
2021/10/07 00:50:03;;;;;;;1.50;1.10;;;;;;;9.73;100.00;101624.69;4940494;28;20194;-71
2021/10/07 00:52:28;;;;;;;3.60;1.50;;;;;;;9.59;100.00;101623.31;4974808;28;20283;-71
2021/10/07 00:54:55;;;;;;;1.40;1.30;;;;;;;9.58;100.00;101621.69;4975427;28;20174;-71
2021/10/07 00:57:23;;;;;;;2.07;1.40;;;;;;;9.51;100.00;101621.00;4955995;28;20218;-71
2021/10/07 00:59:51;;;;;;;2.10;1.37;;;;;;;9.56;100.00;101617.53;4941346;28;20182;-71
2021/10/07 01:02:16;;;;;;;1.80;1.20;;;;;;;9.62;100.00;101623.66;4969430;28;20775;-71
2021/10/07 01:04:42;;;;;;;3.13;1.40;;;;;;;9.57;100.00;101637.09;4939975;28;20178;-71
2021/10/07 01:07:12;;;;;;;2.87;1.40;;;;;;;9.50;100.00;101640.22;4939568;29;20306;-71
2021/10/07 01:09:39;;;;;;;1.53;1.40;;;;;;;9.51;100.00;101639.16;4936310;29;20287;-71
2021/10/07 01:12:05;;;;;;;2.20;1.57;;;;;;;9.46;100.00;101647.19;4914113;29;20309;-71
2021/10/07 01:14:54;;;;;;;2.20;1.40;;;;;;;9.49;100.00;101649.44;4904648;29;20278;-72
2021/10/07 01:17:29;;;;;;;2.30;1.23;;;;;;;9.36;100.00;101652.41;4921124;29;20215;-71
2021/10/07 01:19:56;;;;;;;1.40;1.30;;;;;;;9.24;100.00;101657.03;4921245;29;20724;-71
2021/10/07 01:22:22;;;;;;;1.37;1.27;;;;;;;9.20;100.00;101649.63;4951728;28;20325;-70
2021/10/07 01:24:48;;;;;;;1.83;1.40;;;;;;;9.19;100.00;101648.78;4972416;28;20182;-70
2021/10/07 01:27:16;;;;;;;1.93;1.13;;;;;;;9.13;100.00;101654.34;4941624;29;20246;-71
2021/10/07 01:29:44;;;;;;;2.20;1.30;;;;;;;9.05;100.00;101658.25;4922266;29;20671;-71
2021/10/07 01:32:09;;;;;;;1.40;1.30;;;;;;;9.02;100.00;101664.13;4932183;28;20230;-72
2021/10/07 01:34:37;;;;;;;3.37;1.30;;;;;;;9.00;100.00;101660.03;4940082;28;20268;-70
2021/10/07 01:37:07;;;;;;;1.17;1.13;;;;;;;8.89;100.00;101655.44;4961572;28;20289;-71
2021/10/07 01:39:35;;;;;;;1.47;1.30;;;;;;;8.84;100.00;101658.88;4921503;29;20207;-71
2021/10/07 01:42:03;;;;;;;4.60;1.40;;;;;;;8.88;100.00;101660.03;4941608;29;20222;-70
2021/10/07 01:44:28;;;;;;;1.50;1.30;;;;;;;8.96;100.00;101670.50;4904461;29;20191;-71
2021/10/07 01:46:56;;;;;;;2.77;1.53;;;;;;;8.60;100.00;101663.69;4934882;29;20689;-71
2021/10/07 01:49:29;;;;;;;1.77;1.50;;;;;;;8.59;100.00;101670.13;4905198;29;20211;-72
2021/10/07 01:51:59;;;;;;;2.23;1.40;;;;;;;8.90;100.00;101681.44;4943841;28;20652;-71
2021/10/07 01:54:25;;;;;;;2.63;1.43;;;;;;;8.96;100.00;101681.34;4955486;28;20229;-71
2021/10/07 01:56:52;;;;;;;1.47;1.33;;;;;;;9.01;100.00;101684.19;4948250;29;20219;-71
2021/10/07 01:59:20;;;;;;;2.97;1.40;;;;;;;8.91;100.00;101693.94;4920380;29;20665;-71
2021/10/07 02:01:46;;;;;;;3.43;1.67;;;;;;;9.03;100.00;101694.75;4957405;28;20242;-72
2021/10/07 02:04:13;;;;;;;2.10;1.40;;;;;;;9.10;100.00;101688.19;4938788;28;20202;-72
2021/10/07 02:06:41;;;;;;;2.07;1.40;;;;;;;9.00;100.00;101681.69;4951021;28;20296;-71
2021/10/07 02:09:07;;;;;;;1.97;1.50;;;;;;;9.04;100.00;101689.09;4922089;28;20781;-70
2021/10/07 02:11:35;;;;;;;3.03;1.40;;;;;;;8.82;100.00;101691.84;4936431;28;20226;-71
2021/10/07 02:14:04;;;;;;;1.40;1.30;;;;;;;8.68;100.00;101699.38;4921114;29;20195;-70
2021/10/07 02:16:32;;;;;;;1.93;1.47;;;;;;;8.65;100.00;101704.44;4934946;29;20218;-70
2021/10/07 02:19:00;;;;;;;2.13;1.53;;;;;;;8.56;100.00;101695.00;4921404;29;20261;-70
2021/10/07 02:21:28;;;;;;;2.33;1.30;;;;;;;8.52;100.00;101697.34;4934720;29;20234;-71
2021/10/07 02:23:53;;;;;;;4.53;1.60;;;;;;;8.47;100.00;101699.09;4939208;28;20186;-71
2021/10/07 02:26:19;;;;;;;3.87;1.60;;;;;;;8.53;100.00;101698.16;4954048;28;20261;-72
2021/10/07 02:28:47;;;;;;;1.50;1.40;;;;;;;8.48;100.00;101698.06;4954306;28;20226;-71
2021/10/07 02:31:13;;;;;;;1.40;1.30;;;;;;;8.48;100.00;101708.88;4919122;29;20231;-71
2021/10/07 02:33:39;;;;;;;1.73;1.43;;;;;;;8.42;100.00;101715.22;4968849;28;20183;-71
2021/10/07 02:36:07;;;;;;;1.80;1.53;;;;;;;8.43;100.00;101698.75;4937917;28;20233;-72
2021/10/07 02:38:35;;;;;;;2.30;1.50;;;;;;;8.39;100.00;101710.28;4924486;29;20187;-71
2021/10/07 02:41:03;;;;;;;1.30;1.20;;;;;;;8.41;100.00;101713.56;4934688;29;20392;-70
2021/10/07 02:43:28;;;;;;;2.37;1.50;;;;;;;-138.14;100.00;63448.66;4922207;29;20223;-72
2021/10/07 02:46:00;;;;;;;2.27;1.60;;;;;;;8.32;100.00;101716.84;4951788;29;20251;-72
2021/10/07 02:48:26;;;;;;;2.00;1.70;;;;;;;8.31;100.00;101717.91;4963929;28;20254;-72
2021/10/07 02:50:51;;;;;;;1.93;1.57;;;;;;;8.39;100.00;101726.53;4941705;28;20222;-72
2021/10/07 02:53:17;;;;;;;2.27;1.70;;;;;;;8.42;100.00;101731.44;4967454;28;20243;-72
2021/10/07 02:55:42;;;;;;;2.23;1.80;;;;;;;8.39;100.00;101720.25;4973317;28;20291;-72
2021/10/07 02:58:08;;;;;;;1.60;1.40;;;;;;;8.45;100.00;101731.00;4967049;28;20191;-72
2021/10/07 03:00:36;;;;;;;1.93;1.70;;;;;;;8.49;100.00;101727.59;4922946;28;20230;-72
2021/10/07 03:03:06;;;;;;;2.77;1.43;;;;;;;8.46;100.00;101736.19;4946772;28;20190;-72
2021/10/07 03:05:34;;;;;;;2.67;1.60;;;;;;;8.40;100.00;101747.09;4957817;28;20229;-72
2021/10/07 03:08:00;;;;;;;1.50;1.30;;;;;;;8.34;100.00;101744.50;4936172;29;20219;-72
2021/10/07 03:10:26;;;;;;;1.60;1.37;;;;;;;8.15;100.00;101751.88;4938402;29;20198;-72
2021/10/07 03:12:53;;;;;;;2.00;1.50;;;;;;;8.17;100.00;101749.75;4926473;28;20210;-72
2021/10/07 03:15:19;;;;;;;3.77;1.43;;;;;;;8.31;100.00;101762.03;4956469;28;20191;-71
2021/10/07 03:17:44;;;;;;;2.57;1.43;;;;;;;8.39;100.00;101764.41;4958392;28;20182;-71
2021/10/07 03:20:10;;;;;;;2.97;1.73;;;;;;;8.56;100.00;101776.22;4941594;29;20238;-71
2021/10/07 03:22:36;;;;;;;5.60;1.50;;;;;;;8.66;100.00;101777.31;4939473;28;20207;-70
2021/10/07 03:25:04;;;;;;;2.03;1.80;;;;;;;8.68;100.00;101779.78;4927265;29;20784;-73
2021/10/07 03:27:32;;;;;;;1.80;1.70;;;;;;;8.58;100.00;101779.53;4953704;29;20230;-72
2021/10/07 03:30:00;;;;;;;2.07;1.50;;;;;;;8.56;100.00;101785.16;4938749;29;20556;-72
2021/10/07 03:32:28;;;;;;;4.47;1.80;;;;;;;8.45;100.00;101793.25;4938493;29;20226;-72
2021/10/07 03:34:58;;;;;;;1.87;1.40;;;;;;;8.34;100.00;101785.13;4957134;28;20198;-73
2021/10/07 03:37:24;;;;;;;2.17;1.70;;;;;;;8.24;100.00;101793.78;4973031;28;20794;-72
2021/10/07 03:39:55;;;;;;;4.33;2.00;;;;;;;8.08;100.00;101805.19;4940928;29;20199;-73
2021/10/07 03:42:23;;;;;;;2.20;1.50;;;;;;;8.12;100.00;101808.31;4937960;29;20621;-72
2021/10/07 03:44:51;;;;;;;2.03;1.23;;;;;;;8.20;100.00;101810.69;4938785;29;20334;-72
2021/10/07 03:47:19;;;;;;;1.80;1.20;;;;;;;8.15;100.00;101811.41;4937469;29;20704;-72
2021/10/07 03:49:45;;;;;;;2.10;1.50;;;;;;;8.06;100.00;101822.72;4952794;28;20584;-72
2021/10/07 03:52:10;;;;;;;2.20;1.40;;;;;;;8.03;100.00;101815.88;4965085;28;20229;-72
2021/10/07 03:54:36;;;;;;;1.80;1.60;;;;;;;8.07;100.00;101817.06;4938615;29;20657;-71
2021/10/07 03:57:02;;;;;;;2.73;1.53;;;;;;;8.03;100.00;101822.34;4936287;29;20594;-73
2021/10/07 03:59:30;;;;;;;2.13;1.40;;;;;;;8.04;100.00;101831.06;4938736;28;20203;-72
2021/10/07 04:01:57;;;;;;;2.00;1.40;;;;;;;7.98;100.00;101830.31;4937403;29;20760;-72
2021/10/07 04:04:23;;;;;;;2.93;1.57;;;;;;;7.95;100.00;101822.63;4944284;28;20186;-72
2021/10/07 04:06:51;;;;;;;1.70;1.47;;;;;;;7.86;100.00;101837.56;4971798;28;20237;-72
2021/10/07 04:09:19;;;;;;;3.57;1.63;;;;;;;7.93;100.00;101838.28;4932443;29;20215;-72
2021/10/07 04:11:49;;;;;;;3.00;1.60;;;;;;;7.89;100.00;101839.78;4923451;29;20223;-72
2021/10/07 04:14:14;;;;;;;2.80;1.57;;;;;;;7.85;100.00;101833.19;4947070;28;20182;-71
2021/10/07 04:16:40;;;;;;;1.97;1.70;;;;;;;7.83;100.00;101843.41;4956070;29;20700;-73
2021/10/07 04:19:11;;;;;;;2.70;1.40;;;;;;;7.79;100.00;101842.19;4946620;28;20171;-73
2021/10/07 04:21:36;;;;;;;2.30;1.60;;;;;;;7.69;100.00;101839.16;4959822;28;20708;-72
2021/10/07 04:24:02;;;;;;;1.73;1.43;;;;;;;7.52;100.00;101851.63;4954125;29;20183;-72
2021/10/07 04:26:29;;;;;;;2.03;1.30;;;;;;;7.47;100.00;101856.91;4936966;29;20235;-72
2021/10/07 04:28:55;;;;;;;2.37;1.30;;;;;;;6.87;100.00;101865.91;4925116;28;20209;-72
2021/10/07 04:31:20;;;;;;;2.20;1.70;;;;;;;7.12;100.00;101868.41;4938035;28;20218;-73
2021/10/07 04:33:48;;;;;;;3.07;1.40;;;;;;;7.16;100.00;101885.03;4937476;29;20195;-72
2021/10/07 04:36:14;;;;;;;2.73;2.00;;;;;;;7.31;100.00;101880.97;4936867;29;20249;-72
2021/10/07 04:38:44;;;;;;;2.50;1.67;;;;;;;7.50;100.00;101888.06;4922703;29;20207;-74
2021/10/07 04:41:09;;;;;;;2.23;2.00;;;;;;;7.32;100.00;101883.41;4918208;29;20231;-74
2021/10/07 04:43:35;;;;;;;2.97;2.17;;;;;;;7.53;100.00;101885.75;4935225;29;20657;-72
2021/10/07 04:46:02;;;;;;;2.80;2.07;;;;;;;7.45;100.00;101886.00;4939067;29;20226;-72
2021/10/07 04:48:30;;;;;;;2.63;1.70;;;;;;;7.53;100.00;101887.63;4937147;29;20215;-71
2021/10/07 04:50:56;;;;;;;2.50;1.30;;;;;;;7.56;100.00;101882.56;4956370;28;20227;-73
2021/10/07 04:53:24;;;;;;;1.63;1.47;;;;;;;7.56;100.00;101879.88;4930940;28;20683;-74
2021/10/07 04:55:55;;;;;;;2.93;1.70;;;;;;;7.48;100.00;101884.75;4925888;28;20703;-74
2021/10/07 04:58:24;;;;;;;3.03;1.90;;;;;;;7.49;100.00;101891.78;4938948;28;20334;-77
2021/10/07 05:00:52;;;;;;;3.87;1.63;;;;;;;7.41;100.00;101897.50;4925149;29;20704;-75
2021/10/07 05:03:18;;;;;;;1.83;1.70;;;;;;;7.37;100.00;101907.91;4952725;29;20660;-75
2021/10/07 05:05:44;;;;;;;2.53;1.70;;;;;;;7.30;100.00;101901.72;4920149;29;20219;-73
2021/10/07 05:08:14;;;;;;;1.60;1.50;;;;;;;7.28;100.00;101908.41;4937005;29;20266;-73
2021/10/07 05:10:40;;;;;;;1.60;1.50;;;;;;;7.33;100.00;101917.50;4947779;28;20710;-71
2021/10/07 05:13:13;;;;;;;1.47;1.37;;;;;;;7.38;100.00;101909.56;4942131;28;20538;-72
2021/10/07 05:15:41;;;;;;;4.43;1.87;;;;;;;7.34;100.00;101919.19;4928071;29;20231;-72
2021/10/07 05:18:12;;;;;;;2.87;1.63;;;;;;;7.34;100.00;101908.38;4936339;29;20179;-71
2021/10/07 05:20:38;;;;;;;2.10;1.60;;;;;;;7.42;100.00;101920.78;4929887;28;20230;-71
2021/10/07 05:23:05;;;;;;;2.00;1.57;;;;;;;7.46;100.00;101925.50;4955323;28;20573;-70
2021/10/07 05:25:30;;;;;;;2.03;1.60;;;;;;;7.41;100.00;101930.75;4962442;28;20707;-72
2021/10/07 05:27:56;;;;;;;3.10;1.90;;;;;;;7.45;100.00;101931.94;4920026;29;20219;-71
2021/10/07 05:30:22;;;;;;;2.80;1.80;;;;;;;7.43;100.00;101938.63;4958709;28;20209;-74
2021/10/07 05:32:47;;;;;;;3.97;1.90;;;;;;;7.44;100.00;101941.13;4939879;29;20215;-72
2021/10/07 05:35:15;;;;;;;2.20;1.97;;;;;;;7.41;100.00;101940.72;4935464;29;20184;-72
2021/10/07 05:37:42;;;;;;;2.33;1.70;;;;;;;7.42;100.00;101940.50;4935863;29;20187;-73
2021/10/07 05:40:09;;;;;;;1.73;1.63;;;;;;;7.42;100.00;101937.81;4941154;28;20208;-72
2021/10/07 05:42:34;;;;;;;2.03;1.57;;;;;;;7.39;100.00;101945.53;4918932;29;20641;-73
2021/10/07 05:45:00;;;;;;;3.20;2.00;;;;;;;7.40;100.00;101945.31;4936351;28;20225;-71
2021/10/07 05:47:26;;;;;;;1.80;1.70;;;;;;;7.42;100.00;101950.50;4903020;29;20230;-71
2021/10/07 05:49:56;;;;;;;2.80;1.90;;;;;;;7.46;100.00;101949.84;4934540;29;20215;-71
2021/10/07 05:52:21;;;;;;;2.13;1.70;;;;;;;7.47;100.00;101947.94;4951717;29;20239;-72
2021/10/07 05:54:47;;;;;;;2.13;1.70;;;;;;;7.44;100.00;101951.13;4935306;29;20238;-73
2021/10/07 05:57:15;;;;;;;3.90;2.10;;;;;;;7.43;100.00;101958.38;4952596;28;20238;-73
2021/10/07 05:59:45;;;;;;;3.93;1.90;;;;;;;7.37;100.00;101956.56;4954793;28;20179;-71
2021/10/07 06:02:14;;;;;;;2.60;1.90;;;;;;;7.44;100.00;101961.94;4937349;29;20223;-71
2021/10/07 06:04:39;;;;;;;1.93;1.80;;;;;;;7.42;100.00;101964.03;4935330;29;20593;-72
2021/10/07 06:07:05;;;;;;;1.77;1.60;;;;;;;7.39;100.00;101959.03;4916687;28;20229;-71
2021/10/07 06:09:33;;;;;;;2.73;1.90;;;;;;;7.42;100.00;101970.25;4937195;28;20592;-72
2021/10/07 06:11:58;;;;;;;1.93;1.77;;;;;;;7.46;100.00;101976.03;4916474;28;1144111;-72
2021/10/07 06:14:25;;;;;;;1.90;1.60;;;;;;;7.47;100.00;101980.38;4953013;29;20245;-73
2021/10/07 06:16:53;;;;;;;3.10;1.80;;;;;;;7.46;100.00;101981.44;4952482;29;20227;-72
2021/10/07 06:19:23;;;;;;;3.20;1.80;;;;;;;-138.14;100.00;63448.66;4936309;29;20179;-70
2021/10/07 06:21:50;;;;;;;3.83;2.30;;;;;;;-138.13;100.00;101981.44;4963662;28;20249;-72
2021/10/07 06:24:15;;;;;;;3.30;1.97;;;;;;;7.72;100.00;102004.50;4940570;28;20647;-71
2021/10/07 06:26:41;;;;;;;3.73;2.30;;;;;;;7.85;100.00;102003.56;4948717;29;20297;-71
2021/10/07 06:29:07;;;;;;;6.07;3.63;;;;;;;8.03;100.00;102021.50;4923842;29;20607;-71
2021/10/07 06:31:37;;;;;;;4.43;3.17;;;;;;;8.15;100.00;102022.47;4964132;28;20307;-70
2021/10/07 06:34:03;;;;;;;5.60;2.90;;;;;;;8.23;100.00;102022.16;4943193;28;20182;-71
2021/10/07 06:36:29;;;;;;;6.00;2.30;;;;;;;8.34;100.00;102020.63;4967475;28;20668;-71
2021/10/07 06:38:57;;;;;;;4.20;2.30;;;;;;;8.50;100.00;102031.69;4956939;28;20630;-71
2021/10/07 06:41:22;;;;;;;2.87;2.17;;;;;;;8.65;100.00;102034.84;4927634;28;20218;-72
2021/10/07 06:43:48;;;;;;;2.67;2.10;;;;;;;8.73;100.00;102039.94;4956568;28;20206;-71
2021/10/07 06:46:14;;;;;;;3.23;2.07;;;;;;;8.87;100.00;102034.97;4955000;29;20716;-72
2021/10/07 06:48:40;;;;;;;3.77;2.43;;;;;;;8.95;100.00;102041.94;4907659;29;20898;-71
2021/10/07 06:51:14;;;;;;;3.23;2.40;;;;;;;9.20;100.00;102045.38;4940091;28;20278;-71
2021/10/07 06:53:49;;;;;;;4.80;2.83;;;;;;;9.34;100.00;102043.09;4940391;29;20234;-71
2021/10/07 06:56:17;;;;;;;2.73;1.90;;;;;;;9.26;100.00;102046.09;4940778;28;20772;-71
2021/10/07 06:58:45;;;;;;;3.73;2.10;;;;;;;9.43;100.00;102043.56;4958204;28;20270;-72
2021/10/07 07:01:11;;;;;;;2.00;1.90;;;;;;;9.36;100.00;102045.56;4940625;28;20237;-71
2021/10/07 07:03:37;;;;;;;2.97;2.17;;;;;;;9.47;100.00;102042.03;4923357;29;20572;-72
2021/10/07 07:06:02;;;;;;;3.13;2.50;;;;;;;9.53;100.00;102041.97;4906907;29;20233;-71
2021/10/07 07:08:28;;;;;;;3.17;2.13;;;;;;;9.65;100.00;102040.94;4919036;29;20215;-71
2021/10/07 07:10:58;;;;;;;2.60;2.37;;;;;;;9.79;100.00;102047.78;4919905;29;20783;-72
2021/10/07 07:13:23;;;;;;;3.07;2.50;;;;;;;9.83;100.00;102045.44;4925221;29;20286;-72
2021/10/07 07:15:48;;;;;;;7.60;2.90;;;;;;;9.99;100.00;102048.34;4938130;29;20642;-71
2021/10/07 07:18:14;;;;;;;4.17;3.00;;;;;;;10.05;100.00;102052.81;4956309;29;20230;-70
2021/10/07 07:20:40;;;;;;;4.03;2.77;;;;;;;10.12;100.00;102058.97;4923595;29;20227;-71
2021/10/07 07:23:09;;;;;;;4.90;2.80;;;;;;;10.27;100.00;102068.28;4915232;29;20207;-70
2021/10/07 07:25:35;;;;;;;3.73;2.80;;;;;;;10.46;100.00;102062.50;4936361;29;20243;-71
2021/10/07 07:28:00;;;;;;;3.80;3.37;;;;;;;10.61;100.00;102071.00;4961878;28;20310;-70
2021/10/07 07:30:30;;;;;;;6.10;3.23;;;;;;;10.69;100.00;102067.09;4927017;28;20226;-70
2021/10/07 07:32:58;;;;;;;3.70;3.30;;;;;;;10.86;100.00;102074.25;4963550;28;20206;-73
2021/10/07 07:35:25;;;;;;;4.67;2.90;;;;;;;10.96;100.00;102079.94;4938017;29;20269;-73
2021/10/07 07:37:51;;;;;;;3.00;2.70;;;;;;;11.02;100.00;102073.53;4916817;28;20637;-72
2021/10/07 07:40:16;;;;;;;3.10;2.77;;;;;;;11.11;100.00;102074.81;4957502;28;20190;-71
2021/10/07 07:42:44;;;;;;;2.97;2.67;;;;;;;11.22;100.00;102075.56;4935296;29;20712;-70
2021/10/07 07:45:10;;;;;;;4.67;3.00;;;;;;;11.39;100.00;102081.09;4937592;29;20190;-71
2021/10/07 07:47:41;;;;;;;3.63;2.77;;;;;;;11.33;100.00;102082.88;4945118;28;20190;-71
2021/10/07 07:50:12;;;;;;;3.20;2.90;;;;;;;11.66;100.00;102077.56;4957045;28;20186;-71
2021/10/07 07:52:38;;;;;;;3.27;2.80;;;;;;;11.79;100.00;102074.53;4951488;29;20217;-71
2021/10/07 07:55:05;;;;;;;3.33;2.63;;;;;;;11.92;100.00;102084.06;4954811;28;20176;-71
2021/10/07 07:57:33;;;;;;;7.70;2.90;;;;;;;11.98;100.00;102087.69;4926142;28;20189;-72
2021/10/07 07:59:58;;;;;;;4.13;2.70;;;;;;;12.10;100.00;102078.34;4954021;28;20190;-71
2021/10/07 08:02:26;;;;;;;3.93;2.53;;;;;;;12.19;100.00;102084.22;4971732;28;20235;-72
2021/10/07 08:04:53;;;;;;;4.23;2.70;;;;;;;12.33;100.00;102089.91;4922558;29;20179;-73
2021/10/07 08:07:19;;;;;;;4.50;2.70;;;;;;;12.48;100.00;102089.31;4938764;28;20314;-71
2021/10/07 08:09:44;;;;;;;4.33;2.90;;;;;;;12.65;100.00;102085.47;4924865;28;20361;-72
2021/10/07 08:12:12;;;;;;;4.27;3.00;;;;;;;12.57;100.00;102087.81;4935252;29;20234;-72
2021/10/07 08:14:41;;;;;;;3.53;2.90;;;;;;;12.90;100.00;102088.59;4921999;29;20274;-72
2021/10/07 08:17:07;;;;;;;4.47;2.70;;;;;;;13.03;100.00;102093.69;4921255;29;20233;-71
2021/10/07 08:19:35;;;;;;;2.93;2.63;;;;;;;13.00;100.00;102095.00;4972763;28;20664;-71
2021/10/07 08:22:00;;;;;;;3.97;3.00;;;;;;;13.10;100.00;102100.59;4940865;28;20406;-71
2021/10/07 08:24:26;;;;;;;2.93;2.73;;;;;;;13.28;100.00;102097.56;4948798;29;20225;-72
2021/10/07 08:26:52;;;;;;;4.90;3.07;;;;;;;13.41;100.00;102102.63;4928575;29;20231;-73
2021/10/07 08:29:18;;;;;;;4.70;3.27;;;;;;;13.58;100.00;102098.72;4975869;28;20221;-73
2021/10/07 08:31:46;;;;;;;3.93;3.20;;;;;;;13.65;100.00;102100.16;4943985;28;20652;-72
2021/10/07 08:34:11;;;;;;;3.17;2.87;;;;;;;13.83;100.00;102094.34;4929043;29;20198;-73
2021/10/07 08:36:43;;;;;;;4.77;3.00;;;;;;;13.92;100.00;102092.81;4921483;29;20222;-72
2021/10/07 08:39:12;;;;;;;3.73;3.00;;;;;;;13.95;100.00;102089.53;4949497;28;20731;-71
2021/10/07 08:41:41;;;;;;;4.00;2.70;;;;;;;14.11;100.00;102102.31;4955577;28;20234;-71
2021/10/07 08:44:06;;;;;;;3.50;2.80;;;;;;;14.30;100.00;102091.53;4957068;28;20175;-71
2021/10/07 08:46:32;;;;;;;3.50;2.63;;;;;;;14.34;100.00;102089.94;4935705;29;20219;-72
2021/10/07 08:48:59;;;;;;;3.67;2.57;;;;;;;14.46;100.00;102097.94;4937092;29;20727;-73
2021/10/07 08:51:25;;;;;;;3.70;2.83;;;;;;;14.48;100.00;102090.28;4921556;29;20231;-70
2021/10/07 08:53:50;;;;;;;3.23;2.53;;;;;;;14.54;100.00;102092.81;4928619;28;20200;-71
2021/10/07 08:56:20;;;;;;;3.47;2.57;;;;;;;14.70;100.00;102103.56;4955949;28;20230;-71
2021/10/07 08:58:48;;;;;;;4.67;2.60;;;;;;;14.73;100.00;102102.22;4950213;29;20266;-72
2021/10/07 09:01:42;;;;;;;3.10;2.80;;;;;;;14.91;100.00;102104.50;4905083;29;20231;-72
2021/10/07 09:04:20;;;;;;;4.10;2.50;;;;;;;14.93;100.00;102105.91;4929569;28;20197;-71
2021/10/07 09:06:47;;;;;;;2.40;2.20;;;;;;;15.15;100.00;102110.16;4954948;28;20233;-71
2021/10/07 09:09:12;;;;;;;2.35;1.92;;;;;;;15.23;100.00;102101.44;4931668;29;20203;-71
2021/10/07 09:11:40;;;;;;;3.77;2.00;;;;;;;15.28;100.00;102106.13;4921255;29;20289;-73
2021/10/07 09:14:07;;;;;;;2.65;1.83;;;;;;;15.61;100.00;102109.25;4936372;29;20187;-72
2021/10/07 09:16:46;;;;;;;2.53;1.70;;;;;;;15.73;100.00;102101.59;4904340;29;20608;-72
2021/10/07 09:19:18;;;;;;;2.80;1.80;;;;;;;15.85;100.00;102105.72;4920562;29;20625;-72
2021/10/07 09:21:44;;;;;;;2.20;2.00;;;;;;;15.94;100.00;102095.88;4921306;29;20278;-72
2021/10/07 09:24:35;;;;;;;2.35;1.70;;;;;;;16.06;100.00;102090.94;4942372;28;20170;-72
2021/10/07 09:27:06;;;;;;;1.77;1.35;;;;;;;16.23;100.00;102092.38;4954944;28;20285;-74
2021/10/07 09:29:41;;;;;;;2.30;1.58;;;;;;;16.16;100.00;102098.09;4947228;29;20226;-72
2021/10/07 09:32:07;;;;;;;2.17;1.13;;;;;;;16.24;100.00;102094.84;4921100;29;20236;-73
2021/10/07 09:34:44;;;;;;;1.85;1.15;;;;;;;16.19;100.00;102096.78;4961350;28;20182;-71
2021/10/07 09:37:15;;;;;;;2.05;1.25;;;;;;;16.10;100.00;102087.41;4954901;28;20232;-71
2021/10/07 09:39:51;;;;;;;1.27;1.00;;;;;;;16.24;100.00;102085.78;4946957;29;20179;-73
2021/10/07 09:42:18;;;;;;;2.05;1.08;;;;;;;16.32;100.00;102101.72;4920700;29;20272;-71
2021/10/07 09:45:51;;;;;;;1.75;1.10;;;;;;;16.11;100.00;102099.19;4923546;29;20202;-72
2021/10/07 09:48:16;;;;;;;1.30;1.00;;;;;;;16.25;100.00;102096.47;4888231;29;20242;-72
2021/10/07 09:50:44;;;;;;;2.05;1.20;;;;;;;16.34;100.00;102096.75;4950554;28;20249;-71
2021/10/07 09:53:15;;;;;;;2.65;1.55;;;;;;;16.52;100.00;102101.66;4969401;28;20178;-73
2021/10/07 09:55:48;;;;;;;1.55;1.42;;;;;;;16.77;100.00;102106.03;4949942;28;20226;-72
2021/10/07 09:58:15;;;;;;;1.65;1.10;;;;;;;16.67;100.00;102110.72;4972269;28;20667;-73
2021/10/07 10:00:43;;;;;;;1.30;1.05;;;;;;;16.52;100.00;102105.25;4922715;28;20229;-72
2021/10/07 10:03:11;;;;;;;2.22;1.27;;;;;;;16.59;100.00;102109.38;4971781;28;20179;-72
2021/10/07 10:05:39;;;;;;;3.05;1.40;;;;;;;16.65;100.00;102118.41;4927254;29;20234;-72
2021/10/07 10:08:09;;;;;;;1.55;1.40;;;;;;;16.61;100.00;102112.66;4923639;29;20218;-72
2021/10/07 10:10:37;;;;;;;1.65;1.38;;;;;;;16.85;100.00;102119.19;4954840;28;20230;-72
2021/10/07 10:13:08;;;;;;;3.08;1.65;;;;;;;16.99;100.00;102123.81;4935809;29;20219;-72
2021/10/07 10:15:37;;;;;;;1.75;1.30;;;;;;;17.03;100.00;102124.06;4918874;29;20302;-72
2021/10/07 10:18:07;;;;;;;1.85;1.38;;;;;;;17.18;100.00;102127.66;4937182;29;20213;-71
2021/10/07 10:20:32;;;;;;;1.45;1.33;;;;;;;17.13;100.00;102124.88;4930139;28;20306;-71
2021/10/07 10:23:04;;;;;;;1.90;1.30;;;;;;;17.51;100.00;102124.22;4940051;28;20198;-72
2021/10/07 10:25:33;;;;;;;2.80;1.60;;;;;;;17.34;99.88;102130.06;4945903;29;20298;-72
2021/10/07 10:28:03;;;;;;;1.73;1.30;;;;;;;17.85;98.97;102123.19;4920865;29;20230;-72
2021/10/07 10:30:28;;;;;;;1.52;1.40;;;;;;;18.03;94.59;102128.03;4928359;28;20683;-71
2021/10/07 10:32:58;;;;;;;2.67;0.95;;;;;;;18.19;93.08;102123.00;4972219;28;20273;-72
2021/10/07 10:35:39;;;;;;;1.52;1.08;;;;;;;17.74;95.82;102124.34;4932303;29;20222;-71
2021/10/07 10:38:08;;;;;;;1.30;1.20;;;;;;;17.84;96.24;102130.63;4937421;29;20176;-72
2021/10/07 10:40:38;;;;;;;1.30;1.20;;;;;;;17.97;94.84;102137.44;4927244;28;20218;-72
2021/10/07 10:43:22;;;;;;;2.72;1.30;;;;;;;17.83;92.82;102133.66;4942524;29;20211;-71
2021/10/07 10:45:51;;;;;;;1.48;1.30;;;;;;;17.61;93.37;102127.72;4928673;29;20250;-71
2021/10/07 10:48:41;;;;;;;2.25;1.60;;;;;;;17.74;97.48;102129.84;4953018;29;20241;-73
2021/10/07 10:51:11;;;;;;;1.80;1.10;;;;;;;17.96;97.68;102135.78;4962442;28;20606;-72
2021/10/07 10:54:15;;;;;;;1.33;1.00;;;;;;;18.26;94.66;102140.00;4932703;29;20234;-71
2021/10/07 10:56:55;;;;;;;1.20;1.10;;;;;;;17.83;96.06;102141.91;4878919;29;20940;-72
2021/10/07 10:59:24;;;;;;;1.77;1.00;;;;;;;17.87;91.74;102145.72;4949448;28;20194;-72
2021/10/07 11:02:21;;;;;;;0.70;0.70;;;;;;;18.08;93.28;102147.28;4955444;28;20255;-72
2021/10/07 11:04:49;;;;;;;1.85;0.98;;;;;;;18.40;88.74;102138.22;4952679;29;20183;-71
2021/10/07 11:07:22;;;;;;;0.85;0.75;;;;;;;18.33;88.34;102150.66;4935443;28;20214;-72
2021/10/07 11:09:56;;;;;;;1.02;0.80;;;;;;;18.59;89.74;102144.69;4955215;28;20214;-72
2021/10/07 11:12:42;;;;;;;2.15;1.33;;;;;;;18.45;84.22;102146.44;4923883;29;20680;-71
2021/10/07 11:15:13;;;;;;;1.20;1.10;;;;;;;18.29;85.51;102150.41;4938006;29;20666;-70
2021/10/07 11:17:40;;;;;;;1.85;1.13;;;;;;;18.46;86.46;102144.50;4922834;29;20191;-73
2021/10/07 11:20:14;;;;;;;1.80;1.00;;;;;;;18.67;83.10;102146.81;4923205;29;20175;-71
2021/10/07 11:22:55;;;;;;;1.10;0.85;;;;;;;18.53;81.55;102140.31;4993564;28;20213;-73
2021/10/07 11:25:20;;;;;;;0.82;0.60;;;;;;;18.85;79.87;102144.16;4962532;28;20191;-72
2021/10/07 11:27:48;;;;;;;0.80;0.80;;;;;;;18.96;80.06;102135.50;4954515;28;20175;-72
2021/10/07 11:30:18;;;;;;;1.33;0.70;;;;;;;18.87;79.18;102143.88;4937977;28;20662;-72
2021/10/07 11:32:43;;;;;;;0.77;0.77;;;;;;;18.96;76.37;102140.19;4958016;28;20266;-72